Time;durP1;ratioP1;P1;durP2;ratioP2;P2;SDS_P1;SDS_P2;PMS_P1;PMS_P2;Temp;Humidity;BMP_temperature;BMP_pressure;BME280_temperature;BME280_humidity;BME280_pressure;Samples;Min_cycle;Max_cycle;Signal;HPM_P1;HPM_P2
2022/11/13 00:01:23;;;;;;;7.17;4.20;;;13.60;99.90;;;;;;5013160;28;20192;-75
2022/11/13 00:03:49;;;;;;;5.10;4.13;;;13.60;99.90;;;;;;4979591;28;20197;-75
2022/11/13 00:06:19;;;;;;;4.37;3.97;;;13.50;99.90;;;;;;5000386;28;20218;-75
2022/11/13 00:08:46;;;;;;;5.57;3.87;;;13.50;99.90;;;;;;4976783;28;20769;-75
2022/11/13 00:11:17;;;;;;;5.53;4.20;;;13.60;99.90;;;;;;5004084;28;20227;-75
2022/11/13 00:13:46;;;;;;;6.00;3.60;;;13.50;99.90;;;;;;5010560;28;20185;-75
2022/11/13 00:16:17;;;;;;;7.67;4.13;;;13.50;99.90;;;;;;5009707;28;20224;-75
2022/11/13 00:18:44;;;;;;;6.03;3.80;;;13.40;99.90;;;;;;4991270;28;20197;-75
2022/11/13 00:21:28;;;;;;;7.27;3.93;;;13.40;99.90;;;;;;4990884;28;20185;-75
2022/11/13 00:23:56;;;;;;;4.10;3.63;;;13.50;99.90;;;;;;4992628;28;20658;-75
2022/11/13 00:26:27;;;;;;;7.03;3.70;;;13.40;99.90;;;;;;5009539;28;20192;-75
2022/11/13 00:28:59;;;;;;;4.47;3.90;;;13.40;99.90;;;;;;5004816;28;20201;-75
2022/11/13 00:31:29;;;;;;;6.67;3.90;;;13.30;99.90;;;;;;4990134;28;20266;-75
2022/11/13 00:33:57;;;;;;;4.60;3.50;;;13.30;99.90;;;;;;5009256;28;20197;-75
2022/11/13 00:36:26;;;;;;;6.07;4.33;;;13.20;99.90;;;;;;5010133;28;20199;-75
2022/11/13 00:38:54;;;;;;;6.27;4.63;;;13.20;99.90;;;;;;4991027;28;20542;-75
2022/11/13 00:41:22;;;;;;;6.47;4.40;;;13.20;99.90;;;;;;5010921;28;20192;-74
2022/11/13 00:43:49;;;;;;;5.47;3.90;;;13.20;99.90;;;;;;5006954;28;20820;-75
2022/11/13 00:46:15;;;;;;;5.93;4.30;;;13.20;99.90;;;;;;4990488;28;20734;-75
2022/11/13 00:48:42;;;;;;;9.03;4.50;;;13.10;99.90;;;;;;4991247;28;20208;-75
2022/11/13 00:51:08;;;;;;;7.57;4.23;;;13.10;99.90;;;;;;5010225;28;20221;-75
2022/11/13 00:53:35;;;;;;;6.07;4.53;;;13.10;99.90;;;;;;4992024;28;20565;-75
2022/11/13 00:56:02;;;;;;;5.17;4.33;;;13.10;99.90;;;;;;4990673;28;20188;-75
2022/11/13 00:58:29;;;;;;;8.77;4.00;;;13.10;99.90;;;;;;5007062;28;20678;-75
2022/11/13 01:01:10;;;;;;;8.33;4.60;;;13.10;99.90;;;;;;4991116;28;20189;-75
2022/11/13 01:03:37;;;;;;;8.17;5.07;;;13.10;99.90;;;;;;5015317;28;20204;-75
2022/11/13 01:06:29;;;;;;;7.10;5.13;;;13.00;99.90;;;;;;5009937;28;20188;-75
2022/11/13 01:08:58;;;;;;;9.57;4.90;;;13.00;99.90;;;;;;5006003;28;20193;-75
2022/11/13 01:11:28;;;;;;;8.50;5.27;;;12.90;99.90;;;;;;5009039;28;20216;-75
2022/11/13 01:13:56;;;;;;;7.97;5.07;;;13.00;99.90;;;;;;4997115;28;20181;-75
2022/11/13 01:16:25;;;;;;;7.17;5.03;;;13.00;99.90;;;;;;5009714;28;20189;-75
2022/11/13 01:18:54;;;;;;;7.87;5.07;;;13.10;99.90;;;;;;4992135;28;20557;-75
2022/11/13 01:21:24;;;;;;;5.93;4.70;;;13.10;99.90;;;;;;5010531;28;20192;-75
2022/11/13 01:23:51;;;;;;;7.47;5.43;;;13.10;99.90;;;;;;5009435;28;20266;-75
2022/11/13 01:26:30;;;;;;;9.13;5.30;;;13.00;99.90;;;;;;5005907;28;20223;-75
2022/11/13 01:28:58;;;;;;;8.67;5.10;;;13.00;99.90;;;;;;5005886;28;20188;-75
2022/11/13 01:31:29;;;;;;;9.33;5.43;;;13.00;99.90;;;;;;5004067;28;20215;-75
2022/11/13 01:33:58;;;;;;;8.27;5.20;;;13.00;99.90;;;;;;4985771;28;20224;-75
2022/11/13 01:36:28;;;;;;;6.63;4.90;;;13.00;99.90;;;;;;5009216;28;20196;-75
2022/11/13 01:38:55;;;;;;;7.33;6.03;;;13.00;99.90;;;;;;5006663;28;20535;-75
2022/11/13 01:41:33;;;;;;;10.80;6.20;;;13.00;99.90;;;;;;4984441;28;20185;-75
2022/11/13 01:44:00;;;;;;;7.83;5.70;;;13.00;99.90;;;;;;4991511;28;20660;-75
2022/11/13 01:46:39;;;;;;;8.20;5.60;;;13.00;99.90;;;;;;4986264;28;20186;-75
2022/11/13 01:49:35;;;;;;;8.10;5.27;;;13.00;99.90;;;;;;5006063;28;20199;-75
2022/11/13 01:52:09;;;;;;;6.73;5.50;;;13.00;99.90;;;;;;5002916;28;20709;-75
2022/11/13 01:54:45;;;;;;;7.43;5.90;;;12.90;99.90;;;;;;5010306;28;20181;-75
2022/11/13 01:57:13;;;;;;;8.13;5.87;;;12.90;99.90;;;;;;4990730;28;20614;-75
2022/11/13 01:59:49;;;;;;;7.70;6.03;;;12.90;99.90;;;;;;5008324;28;20714;-75
2022/11/13 02:02:18;;;;;;;10.33;5.77;;;12.90;99.90;;;;;;4993525;28;20827;-75
2022/11/13 02:04:46;;;;;;;7.63;5.37;;;12.90;99.90;;;;;;5008189;28;20239;-75
2022/11/13 02:07:18;;;;;;;6.73;5.67;;;13.00;99.90;;;;;;5015256;28;20197;-75
2022/11/13 02:09:49;;;;;;;9.53;5.90;;;13.00;99.90;;;;;;5009055;28;20220;-75
2022/11/13 02:12:32;;;;;;;10.97;5.40;;;13.00;99.90;;;;;;5008287;28;20623;-75
2022/11/13 02:15:02;;;;;;;8.23;5.47;;;13.00;99.90;;;;;;5004971;28;20224;-75
2022/11/13 02:17:56;;;;;;;10.07;5.23;;;13.00;99.90;;;;;;5005488;28;20670;-75
2022/11/13 02:20:50;;;;;;;6.73;5.20;;;12.90;99.90;;;;;;5008625;28;20677;-75
2022/11/13 02:23:35;;;;;;;7.70;5.60;;;12.90;99.90;;;;;;4989246;28;20626;-75
2022/11/13 02:26:04;;;;;;;8.33;5.83;;;12.80;99.90;;;;;;4986328;28;20181;-75
2022/11/13 02:28:31;;;;;;;7.80;6.17;;;12.80;99.90;;;;;;5007106;28;20213;-76
2022/11/13 02:31:11;;;;;;;7.80;5.93;;;12.80;99.90;;;;;;5006119;28;20280;-75
2022/11/13 02:33:38;;;;;;;9.40;6.00;;;12.90;99.90;;;;;;4999458;28;20602;-75
2022/11/13 02:36:08;;;;;;;8.27;6.17;;;12.90;99.90;;;;;;4990928;28;20246;-75
2022/11/13 02:38:37;;;;;;;8.17;6.53;;;12.80;99.90;;;;;;5007638;28;20662;-75
2022/11/13 02:41:03;;;;;;;10.83;6.50;;;12.80;99.90;;;;;;5007748;28;20185;-75
2022/11/13 02:43:30;;;;;;;9.37;6.07;;;12.70;99.90;;;;;;4999400;28;20199;-75
2022/11/13 02:45:56;;;;;;;9.67;6.53;;;12.70;99.90;;;;;;5006475;28;20197;-75
2022/11/13 02:48:23;;;;;;;8.17;6.40;;;12.70;99.90;;;;;;4988981;28;20223;-75
2022/11/13 02:50:49;;;;;;;7.17;6.33;;;12.70;99.90;;;;;;5022924;28;20181;-75
2022/11/13 02:53:15;;;;;;;7.80;6.83;;;12.70;99.90;;;;;;5006699;28;20220;-75
2022/11/13 02:55:42;;;;;;;12.07;6.83;;;12.80;99.90;;;;;;4990488;28;20586;-75
2022/11/13 02:58:08;;;;;;;9.97;6.90;;;12.80;99.90;;;;;;5006400;28;20219;-75
2022/11/13 03:00:35;;;;;;;10.57;7.00;;;12.80;99.90;;;;;;5005687;28;20768;-75
2022/11/13 03:03:01;;;;;;;10.07;7.43;;;12.80;99.90;;;;;;5006631;28;20189;-76
2022/11/13 03:05:28;;;;;;;10.60;6.87;;;12.80;99.90;;;;;;5008113;28;20231;-75
2022/11/13 03:07:54;;;;;;;7.27;6.37;;;12.80;99.90;;;;;;5007627;28;20503;-75
2022/11/13 03:10:22;;;;;;;8.33;6.97;;;12.80;99.90;;;;;;5006537;28;20271;-75
2022/11/13 03:12:48;;;;;;;8.43;6.97;;;12.70;99.90;;;;;;5008143;28;20252;-76
2022/11/13 03:15:15;;;;;;;9.10;7.10;;;12.70;99.90;;;;;;5006347;28;20181;-75
2022/11/13 03:17:42;;;;;;;7.40;6.63;;;12.70;99.90;;;;;;5005736;28;20835;-75
2022/11/13 03:20:09;;;;;;;8.17;6.60;;;12.80;99.90;;;;;;5007850;28;20899;-76
2022/11/13 03:22:36;;;;;;;8.70;6.50;;;12.80;99.90;;;;;;4989494;28;20243;-76
2022/11/13 03:25:04;;;;;;;9.70;6.80;;;12.80;99.90;;;;;;4998640;28;20203;-75
2022/11/13 03:27:32;;;;;;;10.53;6.87;;;12.70;99.90;;;;;;5009882;28;20531;-76
2022/11/13 03:29:58;;;;;;;9.83;6.50;;;12.70;99.90;;;;;;5022880;28;20642;-75
2022/11/13 03:32:24;;;;;;;9.60;7.00;;;12.70;99.90;;;;;;4999246;28;20332;-75
2022/11/13 03:34:51;;;;;;;11.13;7.07;;;12.70;99.90;;;;;;5007557;28;20185;-75
2022/11/13 03:37:18;;;;;;;8.87;6.80;;;12.70;99.90;;;;;;5007327;28;20250;-75
2022/11/13 03:39:45;;;;;;;8.77;6.77;;;12.60;99.90;;;;;;5007577;28;20189;-75
2022/11/13 03:42:11;;;;;;;8.60;6.90;;;12.60;99.90;;;;;;4987093;28;20818;-75
2022/11/13 03:44:38;;;;;;;10.03;7.20;;;12.60;99.90;;;;;;4983917;28;20188;-75
2022/11/13 03:47:05;;;;;;;8.13;6.37;;;12.60;99.90;;;;;;5007502;28;20212;-76
2022/11/13 03:49:32;;;;;;;10.47;6.80;;;12.60;99.90;;;;;;5006823;28;20177;-75
2022/11/13 03:51:59;;;;;;;8.13;6.47;;;12.60;99.90;;;;;;5003139;28;20653;-75
2022/11/13 03:54:26;;;;;;;8.27;6.70;;;12.60;99.90;;;;;;4988009;28;20200;-75
2022/11/13 03:56:54;;;;;;;10.70;6.67;;;12.60;99.90;;;;;;4997020;28;20282;-76
2022/11/13 03:59:21;;;;;;;8.27;7.27;;;12.60;99.90;;;;;;5006100;28;20258;-75
2022/11/13 04:01:48;;;;;;;8.50;7.00;;;12.60;99.90;;;;;;5001543;28;20252;-76
2022/11/13 04:04:15;;;;;;;9.60;7.13;;;12.60;99.90;;;;;;5005619;28;20208;-75
2022/11/13 04:06:42;;;;;;;9.00;7.33;;;12.60;99.90;;;;;;4989060;28;20208;-75
2022/11/13 04:09:10;;;;;;;12.27;7.30;;;12.60;99.90;;;;;;5007236;28;20202;-75
2022/11/13 04:11:36;;;;;;;11.00;6.90;;;12.60;99.90;;;;;;4988821;28;20742;-76
2022/11/13 04:14:02;;;;;;;9.93;7.37;;;12.60;99.90;;;;;;4986841;28;20200;-75
2022/11/13 04:16:29;;;;;;;10.43;6.63;;;12.60;99.90;;;;;;4997003;28;20248;-75
2022/11/13 04:18:56;;;;;;;9.57;6.83;;;12.60;99.90;;;;;;5008812;28;20280;-75
2022/11/13 04:21:23;;;;;;;7.63;6.83;;;12.60;99.90;;;;;;5004020;28;20647;-76
2022/11/13 04:23:49;;;;;;;8.93;7.07;;;12.60;99.90;;;;;;5010540;28;20192;-75
2022/11/13 04:26:18;;;;;;;10.07;7.03;;;12.50;99.90;;;;;;5010658;28;20200;-75
2022/11/13 04:28:44;;;;;;;10.03;6.87;;;12.50;99.90;;;;;;4992852;28;20621;-76
2022/11/13 04:31:10;;;;;;;10.20;7.00;;;12.50;99.90;;;;;;5004495;28;20634;-75
2022/11/13 04:33:37;;;;;;;10.77;6.70;;;12.50;99.90;;;;;;5008297;28;20199;-75
2022/11/13 04:36:05;;;;;;;10.53;6.70;;;12.60;99.90;;;;;;4993077;28;20234;-75
2022/11/13 04:38:31;;;;;;;13.07;7.10;;;12.50;99.90;;;;;;4991382;28;20203;-76
2022/11/13 04:43:43;;;;;;;11.03;7.33;;;12.50;99.90;;;;;;5002835;28;20218;-75
2022/11/13 04:46:09;;;;;;;10.83;7.40;;;12.60;99.90;;;;;;5007387;28;20799;-76
2022/11/13 04:48:38;;;;;;;12.07;7.67;;;12.60;99.90;;;;;;5009830;28;20199;-75
2022/11/13 04:51:05;;;;;;;9.10;8.20;;;12.60;99.90;;;;;;5009590;28;20559;-75
2022/11/13 04:53:33;;;;;;;10.97;7.70;;;12.50;99.90;;;;;;5008212;28;20212;-76
2022/11/13 04:55:59;;;;;;;10.77;8.13;;;12.60;99.90;;;;;;5015735;28;20196;-75
2022/11/13 04:58:26;;;;;;;13.97;8.07;;;12.60;99.90;;;;;;5010093;28;20197;-75
2022/11/13 05:00:53;;;;;;;10.77;8.17;;;12.60;99.90;;;;;;4980709;28;20215;-75
2022/11/13 05:03:20;;;;;;;10.73;7.80;;;12.60;99.90;;;;;;5009373;28;20220;-75
2022/11/13 05:05:46;;;;;;;12.17;8.13;;;12.70;99.90;;;;;;5010214;28;20283;-75
2022/11/13 05:08:15;;;;;;;11.50;7.73;;;12.80;99.90;;;;;;5008280;28;20674;-75
2022/11/13 05:10:43;;;;;;;12.87;8.00;;;12.80;99.90;;;;;;5010597;28;20196;-75
2022/11/13 05:13:09;;;;;;;11.87;7.93;;;12.80;99.90;;;;;;4993973;28;20226;-76
2022/11/13 05:15:35;;;;;;;10.27;8.37;;;12.80;99.90;;;;;;5006910;28;20188;-75
2022/11/13 05:18:02;;;;;;;9.73;8.17;;;12.80;99.90;;;;;;4990814;28;20274;-76
2022/11/13 05:20:29;;;;;;;9.17;7.97;;;12.80;99.90;;;;;;5007514;28;20197;-76
2022/11/13 05:22:55;;;;;;;10.30;8.57;;;12.80;99.90;;;;;;4994197;28;20210;-75
2022/11/13 05:25:22;;;;;;;11.87;8.47;;;12.80;99.90;;;;;;5011566;28;20185;-75
2022/11/13 05:27:48;;;;;;;12.60;8.83;;;12.80;99.90;;;;;;4999746;28;20196;-75
2022/11/13 05:30:15;;;;;;;11.07;8.37;;;12.90;99.90;;;;;;5009170;28;20196;-75
2022/11/13 05:32:43;;;;;;;9.47;8.17;;;12.90;99.90;;;;;;5001593;28;20225;-75
2022/11/13 05:35:10;;;;;;;11.80;7.90;;;12.90;99.90;;;;;;4991812;28;20211;-76
2022/11/13 05:37:36;;;;;;;12.97;8.60;;;13.00;99.90;;;;;;4991877;28;20191;-75
2022/11/13 05:40:04;;;;;;;11.13;8.10;;;13.10;99.90;;;;;;5009513;28;20195;-75
2022/11/13 05:42:31;;;;;;;10.17;8.10;;;13.10;99.90;;;;;;5006757;28;20658;-75
2022/11/13 05:44:57;;;;;;;10.33;7.93;;;13.20;99.90;;;;;;5008807;28;20196;-76
2022/11/13 05:47:24;;;;;;;11.70;8.30;;;13.30;99.90;;;;;;5002374;28;20200;-75
2022/11/13 05:49:52;;;;;;;9.87;8.60;;;13.30;99.90;;;;;;5009136;28;20231;-76
2022/11/13 05:52:20;;;;;;;13.03;8.60;;;13.40;99.90;;;;;;4990491;28;20231;-76
2022/11/13 05:54:47;;;;;;;13.50;9.30;;;13.50;99.90;;;;;;5015104;28;20188;-75
2022/11/13 05:57:15;;;;;;;9.37;8.23;;;13.60;99.90;;;;;;5008395;28;20195;-76
2022/11/13 05:59:41;;;;;;;12.70;8.67;;;13.70;99.90;;;;;;5006584;28;20185;-76
2022/11/13 06:02:07;;;;;;;12.90;8.63;;;13.80;99.90;;;;;;5003748;28;20254;-75
2022/11/13 06:04:34;;;;;;;11.93;8.93;;;13.80;99.90;;;;;;4992032;28;20193;-75
2022/11/13 06:07:00;;;;;;;11.87;8.70;;;13.80;99.90;;;;;;4993766;28;20247;-76
2022/11/13 06:09:26;;;;;;;10.20;8.77;;;13.90;99.90;;;;;;4991737;28;20217;-76
2022/11/13 06:11:53;;;;;;;15.03;8.90;;;14.00;99.90;;;;;;4989440;28;20646;-75
2022/11/13 06:14:19;;;;;;;10.27;8.37;;;14.00;99.90;;;;;;4990784;28;20184;-75
2022/11/13 06:16:45;;;;;;;15.77;9.77;;;14.10;99.90;;;;;;5009114;28;20795;-76
2022/11/13 06:19:12;;;;;;;11.80;9.60;;;14.10;99.90;;;;;;4980355;28;20219;-75
2022/11/13 06:21:40;;;;;;;10.90;8.43;;;14.20;99.90;;;;;;5008123;28;20192;-76
2022/11/13 06:24:11;;;;;;;11.47;9.53;;;14.20;99.90;;;;;;5008519;28;20246;-76
2022/11/13 06:26:37;;;;;;;14.60;9.83;;;14.30;99.90;;;;;;5006640;28;20254;-76
2022/11/13 06:29:06;;;;;;;11.73;9.23;;;14.30;99.90;;;;;;5005534;28;20200;-76
2022/11/13 06:31:36;;;;;;;14.50;9.77;;;14.40;99.90;;;;;;5008243;28;20251;-76
2022/11/13 06:34:04;;;;;;;12.33;9.07;;;14.50;99.90;;;;;;5008043;28;20184;-75
2022/11/13 06:36:34;;;;;;;11.00;9.80;;;14.40;99.90;;;;;;5008599;28;20188;-76
2022/11/13 06:39:03;;;;;;;11.47;9.50;;;14.50;99.90;;;;;;4986864;28;20195;-76
2022/11/13 06:41:30;;;;;;;9.87;8.63;;;14.50;99.90;;;;;;5008284;28;20291;-76
2022/11/13 06:43:58;;;;;;;10.50;9.23;;;14.60;99.90;;;;;;5007840;28;20196;-76
2022/11/13 06:46:28;;;;;;;10.47;9.37;;;14.60;99.90;;;;;;4989566;28;20247;-75
2022/11/13 06:48:55;;;;;;;9.63;8.47;;;14.70;99.90;;;;;;5007182;28;20279;-75
2022/11/13 06:51:27;;;;;;;12.27;8.83;;;14.70;99.90;;;;;;4990041;28;20220;-75
2022/11/13 06:53:54;;;;;;;12.73;9.27;;;14.70;99.90;;;;;;4989934;28;20228;-75
2022/11/13 06:56:21;;;;;;;10.87;8.97;;;14.80;99.90;;;;;;5008483;28;20231;-76
2022/11/13 06:58:48;;;;;;;10.77;8.77;;;14.80;99.90;;;;;;5006405;28;20622;-75
2022/11/13 07:01:19;;;;;;;14.47;8.87;;;14.90;99.90;;;;;;5004048;28;20271;-75
2022/11/13 07:03:45;;;;;;;9.13;8.20;;;14.90;99.90;;;;;;4986589;28;20197;-75
2022/11/13 07:06:19;;;;;;;10.40;8.30;;;14.90;99.90;;;;;;5007200;28;20209;-76
2022/11/13 07:08:46;;;;;;;10.00;8.43;;;15.00;99.90;;;;;;5007980;28;20200;-76
2022/11/13 07:11:22;;;;;;;15.03;8.60;;;15.00;99.90;;;;;;5006909;28;20189;-75
2022/11/13 07:13:49;;;;;;;12.00;8.87;;;15.10;99.90;;;;;;5008208;28;20230;-76
2022/11/13 07:16:17;;;;;;;11.73;8.47;;;15.10;99.90;;;;;;5016231;28;20184;-76
2022/11/13 07:18:52;;;;;;;11.23;8.73;;;15.10;99.90;;;;;;5007486;28;20197;-75
2022/11/13 07:21:19;;;;;;;11.43;8.83;;;15.10;99.90;;;;;;5003875;28;20179;-75
2022/11/13 07:23:49;;;;;;;12.57;8.83;;;15.20;99.90;;;;;;5002933;28;20204;-76
2022/11/13 07:26:18;;;;;;;10.43;9.10;;;15.20;99.90;;;;;;5004638;28;20267;-76
2022/11/13 07:28:45;;;;;;;13.10;9.23;;;15.30;99.90;;;;;;4996911;28;20200;-76
2022/11/13 07:31:14;;;;;;;13.00;9.13;;;15.30;99.90;;;;;;4990840;28;20843;-76
2022/11/13 07:33:40;;;;;;;14.10;9.70;;;15.30;99.90;;;;;;4997233;28;20200;-75
2022/11/13 07:36:08;;;;;;;17.87;10.27;;;15.40;99.90;;;;;;5005450;28;20185;-75
2022/11/13 07:38:35;;;;;;;12.80;9.00;;;15.50;99.90;;;;;;4994043;28;20670;-75
2022/11/13 07:41:02;;;;;;;18.50;9.30;;;15.50;99.90;;;;;;4987623;28;20192;-76
2022/11/13 07:43:28;;;;;;;17.50;10.03;;;15.60;99.90;;;;;;5000048;28;20201;-75
2022/11/13 07:45:59;;;;;;;12.57;9.60;;;15.70;99.90;;;;;;4995418;28;20198;-76
2022/11/13 07:48:27;;;;;;;9.97;8.97;;;15.70;99.90;;;;;;5007390;28;20202;-75
2022/11/13 07:50:54;;;;;;;14.27;9.47;;;15.70;99.90;;;;;;4976481;28;20343;-75
2022/11/13 07:53:21;;;;;;;11.70;9.70;;;15.80;99.90;;;;;;5012503;28;20216;-75
2022/11/13 07:55:49;;;;;;;12.53;10.20;;;15.90;99.90;;;;;;5018862;28;20181;-76
2022/11/13 07:58:15;;;;;;;13.40;9.77;;;16.00;99.90;;;;;;5008855;28;20189;-75
2022/11/13 08:00:42;;;;;;;14.07;10.47;;;16.00;99.90;;;;;;5009785;28;20279;-75
2022/11/13 08:03:15;;;;;;;12.47;9.93;;;16.00;99.90;;;;;;5012252;28;20211;-76
2022/11/13 08:05:42;;;;;;;11.97;10.57;;;16.10;99.90;;;;;;5019440;28;20717;-76
2022/11/13 08:08:13;;;;;;;14.13;10.57;;;16.20;99.90;;;;;;5008137;28;20301;-76
2022/11/13 08:10:41;;;;;;;11.83;10.20;;;16.30;99.90;;;;;;5003137;28;20263;-76
2022/11/13 08:13:09;;;;;;;13.17;10.20;;;16.30;99.90;;;;;;5011508;28;20295;-76
2022/11/13 08:15:36;;;;;;;17.00;10.73;;;16.40;99.90;;;;;;4992009;28;20203;-76
2022/11/13 08:18:04;;;;;;;11.70;9.07;;;16.50;99.90;;;;;;5012798;28;20404;-76
2022/11/13 08:20:32;;;;;;;12.23;10.20;;;16.50;99.90;;;;;;4998530;28;20192;-76
2022/11/13 08:23:02;;;;;;;12.00;10.40;;;16.50;99.90;;;;;;5011112;28;20251;-76
2022/11/13 08:25:30;;;;;;;11.57;10.30;;;16.50;99.90;;;;;;5015014;28;20196;-76
2022/11/13 08:27:58;;;;;;;11.90;10.43;;;16.60;99.90;;;;;;5014701;28;20184;-76
2022/11/13 08:30:26;;;;;;;12.27;10.23;;;16.60;99.90;;;;;;4993770;28;20193;-76
2022/11/13 08:32:54;;;;;;;16.97;10.20;;;16.80;99.90;;;;;;5015805;28;20219;-76
2022/11/13 08:35:21;;;;;;;14.00;10.17;;;16.90;99.90;;;;;;4992591;28;20193;-76
2022/11/13 08:37:47;;;;;;;14.90;10.30;;;17.00;99.90;;;;;;5016793;28;20207;-76
2022/11/13 08:40:14;;;;;;;17.03;10.43;;;17.10;99.90;;;;;;4999538;28;20201;-76
2022/11/13 08:42:40;;;;;;;18.33;10.03;;;17.20;99.90;;;;;;4991746;28;20631;-76
2022/11/13 08:45:08;;;;;;;15.77;9.67;;;17.30;99.90;;;;;;5012014;28;20188;-76
2022/11/13 08:47:37;;;;;;;13.83;9.93;;;17.40;99.90;;;;;;4995644;28;20549;-76
2022/11/13 08:50:06;;;;;;;12.43;9.33;;;17.40;99.90;;;;;;4989286;28;20185;-76
2022/11/13 08:52:32;;;;;;;12.83;9.60;;;17.40;99.90;;;;;;4997087;28;20331;-76
2022/11/13 08:54:58;;;;;;;17.67;9.00;;;17.50;99.90;;;;;;4998099;28;20192;-76
2022/11/13 08:57:24;;;;;;;13.50;8.53;;;17.60;99.90;;;;;;5010581;28;20197;-76
2022/11/13 08:59:50;;;;;;;12.73;9.37;;;17.70;99.90;;;;;;4995234;28;20216;-76
2022/11/13 09:02:17;;;;;;;13.33;9.80;;;17.80;99.90;;;;;;5003678;28;20201;-76
2022/11/13 09:04:45;;;;;;;10.93;8.60;;;17.90;99.90;;;;;;5006376;28;20831;-76
2022/11/13 09:07:11;;;;;;;14.27;9.27;;;18.00;99.90;;;;;;5014293;28;20310;-76
2022/11/13 09:09:37;;;;;;;11.13;8.40;;;18.10;99.90;;;;;;5018460;28;20201;-77
2022/11/13 09:12:04;;;;;;;16.50;9.23;;;18.10;99.90;;;;;;5016664;28;20539;-76
2022/11/13 09:14:30;;;;;;;10.53;8.33;;;18.20;99.90;;;;;;5005454;28;20192;-75
2022/11/13 09:16:57;;;;;;;15.33;8.73;;;18.20;99.90;;;;;;5006080;28;20283;-75
2022/11/13 09:19:23;;;;;;;23.50;9.20;;;18.20;99.90;;;;;;5008426;28;20230;-76
2022/11/13 09:21:51;;;;;;;9.47;7.67;;;18.30;99.90;;;;;;4993570;28;20720;-75
2022/11/13 09:24:18;;;;;;;15.47;8.53;;;18.30;99.90;;;;;;4994656;28;20195;-76
2022/11/13 09:26:45;;;;;;;15.33;8.70;;;18.30;99.90;;;;;;5000970;28;20193;-76
2022/11/13 09:29:11;;;;;;;13.53;8.90;;;18.30;99.90;;;;;;5012180;28;20329;-76
2022/11/13 09:31:39;;;;;;;11.03;8.10;;;18.40;99.90;;;;;;5001854;28;20213;-76
2022/11/13 09:34:07;;;;;;;10.00;7.67;;;18.50;99.90;;;;;;5001683;28;20189;-76
2022/11/13 09:36:34;;;;;;;13.93;7.73;;;18.50;99.90;;;;;;5004495;28;20192;-76
2022/11/13 09:39:00;;;;;;;11.63;8.10;;;18.60;99.90;;;;;;4986485;28;20219;-76
2022/11/13 09:41:38;;;;;;;14.93;8.67;;;18.60;99.90;;;;;;5003767;28;20188;-76
2022/11/13 09:44:23;;;;;;;8.93;7.80;;;18.70;99.90;;;;;;5005034;28;20642;-75
2022/11/13 09:47:07;;;;;;;10.33;7.37;;;18.70;99.90;;;;;;5005559;28;20749;-76
2022/11/13 09:49:41;;;;;;;9.77;7.73;;;18.80;99.90;;;;;;5009490;28;20677;-76
2022/11/13 09:52:25;;;;;;;10.23;8.07;;;18.80;99.90;;;;;;5000549;28;20251;-76
2022/11/13 09:54:52;;;;;;;12.60;7.63;;;18.70;99.90;;;;;;4998573;28;20216;-76
2022/11/13 09:57:58;;;;;;;11.00;7.00;;;18.70;99.90;;;;;;4989407;28;20216;-76
2022/11/13 10:00:24;;;;;;;9.73;6.67;;;18.80;99.90;;;;;;4991319;28;20208;-76
2022/11/13 10:03:23;;;;;;;7.47;6.70;;;18.90;99.90;;;;;;5007666;28;20203;-76
2022/11/13 10:06:17;;;;;;;10.43;7.57;;;19.20;99.90;;;;;;5008877;28;20295;-76
2022/11/13 10:09:00;;;;;;;8.93;6.90;;;19.70;99.90;;;;;;4985527;28;20197;-76
2022/11/13 10:12:01;;;;;;;11.07;7.40;;;19.80;99.90;;;;;;5009040;28;20191;-76
2022/11/13 10:14:42;;;;;;;8.27;7.07;;;19.80;99.90;;;;;;4987209;28;20213;-76
2022/11/13 10:18:00;;;;;;;12.63;7.37;;;19.80;99.90;;;;;;4988508;28;20567;-76
2022/11/13 10:20:39;;;;;;;11.57;6.63;;;19.90;99.90;;;;;;5006324;28;20275;-76
2022/11/13 10:23:31;;;;;;;8.17;6.70;;;20.10;99.90;;;;;;4996246;28;20577;-76
2022/11/13 10:26:17;;;;;;;12.43;7.05;;;20.20;99.90;;;;;;5002434;28;20220;-76
2022/11/13 10:28:44;;;;;;;10.90;7.15;;;20.50;99.90;;;;;;5006308;28;20376;-76
2022/11/13 10:31:11;;;;;;;11.50;7.57;;;21.00;99.90;;;;;;4991079;28;20189;-76
2022/11/13 10:33:38;;;;;;;9.77;7.05;;;20.90;99.90;;;;;;5001514;28;20638;-76
2022/11/13 10:36:25;;;;;;;14.02;7.38;;;20.80;99.90;;;;;;5008362;28;20189;-76
2022/11/13 10:39:05;;;;;;;12.10;7.45;;;20.70;99.90;;;;;;5006004;28;20491;-76
2022/11/13 10:41:31;;;;;;;9.25;7.40;;;20.60;99.90;;;;;;4990607;28;20200;-76
2022/11/13 10:44:29;;;;;;;13.35;6.75;;;20.50;99.90;;;;;;5002615;28;20189;-76
2022/11/13 10:47:15;;;;;;;11.23;6.93;;;20.70;99.90;;;;;;4999372;28;20196;-77
2022/11/13 10:49:41;;;;;;;10.77;7.03;;;20.90;99.90;;;;;;4987093;28;20408;-76
2022/11/13 10:52:27;;;;;;;8.35;6.05;;;21.10;99.90;;;;;;5002168;28;20224;-77
2022/11/13 10:55:21;;;;;;;7.40;6.68;;;21.30;99.90;;;;;;4981523;28;20185;-77
2022/11/13 10:57:58;;;;;;;14.68;6.65;;;21.50;99.90;;;;;;4988223;28;20209;-76
2022/11/13 11:00:43;;;;;;;9.75;6.40;;;21.60;99.90;;;;;;4988588;28;20267;-77
2022/11/13 11:03:29;;;;;;;9.60;6.45;;;21.90;99.90;;;;;;4989584;28;20261;-77
2022/11/13 11:06:02;;;;;;;9.38;6.85;;;21.90;99.90;;;;;;5005073;28;20200;-76
2022/11/13 11:08:36;;;;;;;10.68;6.53;;;21.80;99.90;;;;;;5007159;28;20306;-77
2022/11/13 11:14:31;;;;;;;11.23;6.68;;;21.60;99.90;;;;;;5004233;28;20189;-76
2022/11/13 11:17:00;;;;;;;10.13;7.13;;;21.60;99.90;;;;;;4988339;28;20193;-76
2022/11/13 11:19:36;;;;;;;9.98;7.22;;;21.50;99.90;;;;;;5011157;28;20189;-76
2022/11/13 11:22:18;;;;;;;14.73;7.13;;;21.60;99.90;;;;;;5007032;28;20177;-76
2022/11/13 11:25:08;;;;;;;11.20;7.00;;;21.50;99.90;;;;;;5007860;28;20187;-76
2022/11/13 11:27:47;;;;;;;11.07;7.55;;;21.70;99.90;;;;;;4995452;28;20526;-76
2022/11/13 11:30:32;;;;;;;9.93;7.57;;;21.80;99.90;;;;;;5011578;28;20206;-76
2022/11/13 11:33:34;;;;;;;8.23;6.57;;;21.80;99.90;;;;;;5007995;28;20374;-76
2022/11/13 11:36:17;;;;;;;20.92;6.53;;;21.90;99.90;;;;;;5006685;28;20184;-76
2022/11/13 11:39:25;;;;;;;10.73;6.95;;;21.90;99.90;;;;;;4992323;28;20191;-76
2022/11/13 11:42:38;;;;;;;10.55;6.70;;;21.80;99.90;;;;;;4991750;28;20208;-76
2022/11/13 11:45:22;;;;;;;11.75;6.63;;;21.90;99.90;;;;;;5006813;28;20192;-76
2022/11/13 11:47:49;;;;;;;11.18;6.65;;;21.90;99.90;;;;;;4986173;28;20242;-77
2022/11/13 11:50:30;;;;;;;14.77;5.90;;;21.80;99.90;;;;;;5014596;28;20189;-76
2022/11/13 11:53:12;;;;;;;11.68;6.22;;;21.70;99.90;;;;;;4985236;28;20685;-76
2022/11/13 11:56:22;;;;;;;10.77;5.90;;;21.80;99.90;;;;;;5013351;28;20192;-76
2022/11/13 11:59:05;;;;;;;11.93;5.85;;;21.80;99.90;;;;;;4985640;28;20209;-75
2022/11/13 12:01:56;;;;;;;12.18;5.70;;;21.80;99.90;;;;;;5003801;28;20208;-74
2022/11/13 12:05:00;;;;;;;10.07;5.55;;;21.70;99.90;;;;;;5008657;28;20186;-75
2022/11/13 12:07:35;;;;;;;13.45;6.35;;;21.50;99.90;;;;;;5010841;28;20176;-75
2022/11/13 12:10:27;;;;;;;10.85;6.13;;;21.30;99.90;;;;;;4990881;28;20195;-75
2022/11/13 12:13:25;;;;;;;8.90;5.50;;;21.30;99.90;;;;;;4984719;28;20283;-75
2022/11/13 12:16:10;;;;;;;8.90;5.20;;;21.50;99.90;;;;;;5021681;28;20189;-74
2022/11/13 12:18:53;;;;;;;9.73;5.27;;;21.50;99.90;;;;;;5010510;28;20197;-75
2022/11/13 12:21:39;;;;;;;11.43;6.10;;;21.50;99.90;;;;;;5013991;28;20192;-75
2022/11/13 12:24:38;;;;;;;8.20;6.45;;;21.40;99.90;;;;;;5002853;28;20268;-75
2022/11/13 12:27:47;;;;;;;14.85;10.27;;;21.30;99.90;;;;;;5007068;28;20291;-75
2022/11/13 12:30:23;;;;;;;13.07;8.57;;;21.20;99.90;;;;;;5006082;28;20197;-74
2022/11/13 12:33:02;;;;;;;13.25;8.77;;;21.20;99.90;;;;;;5008022;28;20727;-75
2022/11/13 12:35:29;;;;;;;17.45;12.00;;;21.10;99.90;;;;;;5006377;28;20324;-75
2022/11/13 12:38:12;;;;;;;11.73;8.70;;;21.10;99.90;;;;;;5005324;28;20201;-75
2022/11/13 12:41:09;;;;;;;16.23;10.25;;;21.20;99.90;;;;;;5014692;28;20204;-75
2022/11/13 12:43:56;;;;;;;18.02;10.90;;;21.20;99.90;;;;;;4995284;28;20808;-74
2022/11/13 12:46:38;;;;;;;21.20;14.10;;;21.10;99.90;;;;;;5004540;28;20196;-75
2022/11/13 12:49:35;;;;;;;23.60;14.70;;;21.10;99.90;;;;;;5020097;28;20259;-75
2022/11/13 12:52:17;;;;;;;13.73;9.93;;;21.00;99.90;;;;;;5005955;28;20204;-74
2022/11/13 12:54:44;;;;;;;12.60;9.70;;;20.90;99.90;;;;;;4988125;28;20204;-75
2022/11/13 12:57:13;;;;;;;12.32;9.35;;;20.90;99.90;;;;;;5020321;28;20512;-75
2022/11/13 12:59:59;;;;;;;9.63;8.63;;;21.00;99.90;;;;;;4983472;28;20200;-75
2022/11/13 13:03:26;;;;;;;11.43;8.70;;;20.90;99.90;;;;;;5006690;28;20196;-75
2022/11/13 13:06:29;;;;;;;9.43;8.43;;;20.80;99.90;;;;;;4989392;28;20224;-75
2022/11/13 13:09:29;;;;;;;9.85;8.50;;;20.70;99.90;;;;;;5006033;28;20199;-75
2022/11/13 13:12:26;;;;;;;13.93;9.18;;;20.60;99.90;;;;;;4976299;28;20221;-75
2022/11/13 13:15:37;;;;;;;11.65;9.55;;;20.60;99.90;;;;;;5016094;28;20216;-75